Time,TemperatureF,DewpointF,PressureIn,WindDirection,WindDirectionDegrees,WindSpeedMPH,WindSpeedGustMPH,Humidity,HourlyPrecipIn,Conditions,Clouds,dailyrainin,SolarRadiationWatts/m^2,SoftwareType,DateUTC
2013-09-12 00:02:00,58.0,36.0,-100.00,North,1,6.0,8.0,44,0.00,,,0.00,3.000000,,2013-09-12 07:02:00,
2013-09-12 00:12:00,58.0,36.0,-100.00,North,1,6.0,8.0,44,0.00,,,0.00,3.000000,,2013-09-12 07:12:00,
2013-09-12 00:43:00,59.0,33.0,-100.00,North,1,7.0,9.0,38,0.00,,,0.00,3.000000,,2013-09-12 07:43:00,
2013-09-12 00:52:00,59.0,33.0,-100.00,North,1,7.0,9.0,38,0.00,,,0.00,3.000000,,2013-09-12 07:52:00,
2013-09-12 01:02:00,59.0,33.0,-100.00,North,1,7.0,9.0,38,0.00,,,0.00,3.000000,,2013-09-12 08:02:00,
2013-09-12 01:11:00,59.0,33.0,-100.00,North,1,7.0,9.0,38,0.00,,,0.00,3.000000,,2013-09-12 08:11:00,
2013-09-12 03:43:00,59.0,31.0,-100.00,North,1,5.0,9.0,34,0.00,,,0.00,3.000000,,2013-09-12 10:43:00,
2013-09-12 03:53:00,59.0,31.0,-100.00,North,1,5.0,9.0,34,0.00,,,0.00,3.000000,,2013-09-12 10:53:00,
2013-09-12 04:03:00,59.0,31.0,-100.00,North,1,5.0,9.0,34,0.00,,,0.00,3.000000,,2013-09-12 11:03:00,
2013-09-12 04:42:00,59.0,29.0,-100.00,North,1,6.0,9.0,32,0.00,,,0.00,3.000000,,2013-09-12 11:42:00,
2013-09-12 04:52:00,59.0,29.0,-100.00,North,1,6.0,9.0,32,0.00,,,0.00,3.000000,,2013-09-12 11:52:00,
2013-09-12 05:01:00,59.0,29.0,-100.00,North,1,6.0,9.0,32,0.00,,,0.00,3.000000,,2013-09-12 12:01:00,
2013-09-12 08:11:00,61.0,32.0,-100.00,North,1,6.0,10.0,34,0.00,,,0.00,27.000000,,2013-09-12 15:11:00,
2013-09-12 09:43:00,68.0,35.0,-100.00,North,1,9.0,12.0,30,-99.99,,,-99.99,450.000000,,2013-09-12 16:43:00,
2013-09-12 09:53:00,68.0,35.0,-100.00,North,1,9.0,12.0,30,-99.99,,,-99.99,450.000000,,2013-09-12 16:53:00,
2013-09-12 10:03:00,68.0,35.0,-100.00,North,1,9.0,12.0,30,-99.99,,,-99.99,450.000000,,2013-09-12 17:03:00,
2013-09-12 10:12:00,68.0,35.0,-100.00,North,1,9.0,12.0,30,-99.99,,,-99.99,450.000000,,2013-09-12 17:12:00,
2013-09-12 10:43:00,69.0,35.0,-100.00,North,0,8.0,13.0,29,0.00,,,-99.99,653.000000,,2013-09-12 17:43:00,
2013-09-12 10:53:00,69.0,35.0,-100.00,North,0,8.0,13.0,29,0.00,,,-99.99,653.000000,,2013-09-12 17:53:00,
2013-09-12 11:02:00,69.0,35.0,-100.00,North,0,8.0,13.0,29,0.00,,,-99.99,653.000000,,2013-09-12 18:02:00,
2013-09-12 11:12:00,69.0,35.0,-100.00,North,0,8.0,13.0,29,0.00,,,-99.99,653.000000,,2013-09-12 18:12:00,
2013-09-12 11:42:00,71.0,36.0,-100.00,North,0,8.0,14.0,28,0.00,,,0.00,848.000000,,2013-09-12 18:42:00,
2013-09-12 11:52:00,71.0,36.0,-100.00,North,0,8.0,14.0,28,0.00,,,0.00,848.000000,,2013-09-12 18:52:00,
2013-09-12 12:02:00,71.0,36.0,-100.00,North,0,8.0,14.0,28,0.00,,,0.00,848.000000,,2013-09-12 19:02:00,
2013-09-12 12:12:00,71.0,36.0,-100.00,North,0,8.0,14.0,28,0.00,,,0.00,848.000000,,2013-09-12 19:12:00,
2013-09-12 12:42:00,72.0,38.0,-100.00,North,0,9.0,15.0,29,0.00,,,0.00,942.000000,,2013-09-12 19:42:00,
2013-09-12 12:52:00,72.0,38.0,-100.00,North,0,9.0,15.0,29,0.00,,,0.00,942.000000,,2013-09-12 19:52:00,
2013-09-12 13:02:00,72.0,38.0,-100.00,North,0,9.0,15.0,29,0.00,,,0.00,942.000000,,2013-09-12 20:02:00,
2013-09-12 13:11:00,72.0,38.0,-100.00,North,0,9.0,15.0,29,0.00,,,0.00,942.000000,,2013-09-12 20:11:00,
2013-09-12 13:42:00,72.0,37.0,-100.00,North,0,8.0,16.0,28,0.00,,,0.00,1008.000000,,2013-09-12 20:42:00,
2013-09-12 13:52:00,72.0,37.0,-100.00,North,0,8.0,16.0,28,0.00,,,0.00,1008.000000,,2013-09-12 20:52:00,
2013-09-12 14:02:00,72.0,37.0,-100.00,North,0,8.0,16.0,28,0.00,,,0.00,1008.000000,,2013-09-12 21:02:00,
2013-09-12 14:11:00,72.0,37.0,-100.00,North,0,8.0,16.0,28,0.00,,,0.00,1008.000000,,2013-09-12 21:11:00,
2013-09-12 14:43:00,73.0,34.0,-100.00,North,0,9.0,15.0,24,0.00,,,0.00,984.000000,,2013-09-12 21:43:00,
2013-09-12 14:54:00,73.0,34.0,-100.00,North,0,9.0,15.0,24,0.00,,,0.00,984.000000,,2013-09-12 21:54:00,
2013-09-12 15:04:00,73.0,34.0,-100.00,North,0,9.0,15.0,24,0.00,,,0.00,984.000000,,2013-09-12 22:04:00,
2013-09-12 15:13:00,73.0,34.0,-100.00,North,0,9.0,15.0,24,0.00,,,0.00,984.000000,,2013-09-12 22:13:00,
2013-09-12 15:43:00,72.0,32.0,-100.00,North,0,10.0,16.0,23,0.00,,,0.00,882.000000,,2013-09-12 22:43:00,
2013-09-12 15:54:00,72.0,32.0,-100.00,North,0,10.0,16.0,23,0.00,,,0.00,882.000000,,2013-09-12 22:54:00,
2013-09-12 16:04:00,72.0,32.0,-100.00,North,0,10.0,16.0,23,0.00,,,0.00,882.000000,,2013-09-12 23:04:00,
2013-09-12 16:12:00,72.0,32.0,-100.00,North,0,10.0,16.0,23,0.00,,,0.00,882.000000,,2013-09-12 23:12:00,
2013-09-12 16:43:00,72.0,34.0,-100.00,North,0,10.0,15.0,25,0.00,,,0.00,717.000000,,2013-09-12 23:43:00,
2013-09-12 16:52:00,72.0,34.0,-100.00,North,0,10.0,15.0,25,0.00,,,0.00,717.000000,,2013-09-12 23:52:00,
2013-09-12 17:01:00,72.0,34.0,-100.00,North,0,10.0,15.0,25,0.00,,,0.00,717.000000,,2013-09-13 00:01:00,
2013-09-12 17:11:00,72.0,34.0,-100.00,North,0,10.0,15.0,25,0.00,,,0.00,717.000000,,2013-09-13 00:11:00,
2013-09-12 17:42:00,69.0,34.0,-100.00,North,0,9.0,16.0,27,0.00,,,0.00,501.000000,,2013-09-13 00:42:00,
2013-09-12 17:52:00,69.0,34.0,-100.00,North,0,9.0,16.0,27,0.00,,,0.00,501.000000,,2013-09-13 00:52:00,
2013-09-12 18:01:00,69.0,34.0,-100.00,North,0,9.0,16.0,27,0.00,,,0.00,501.000000,,2013-09-13 01:01:00,
2013-09-12 18:11:00,69.0,34.0,-100.00,North,0,9.0,16.0,27,0.00,,,0.00,501.000000,,2013-09-13 01:11:00,
2013-09-12 18:42:00,65.0,35.0,-100.00,North,0,8.0,14.0,33,0.00,,,0.00,260.000000,,2013-09-13 01:42:00,
2013-09-12 18:52:00,65.0,35.0,-100.00,North,0,8.0,14.0,33,0.00,,,0.00,260.000000,,2013-09-13 01:52:00,
2013-09-12 19:02:00,65.0,35.0,-100.00,North,0,8.0,14.0,33,0.00,,,0.00,260.000000,,2013-09-13 02:02:00,
2013-09-12 19:11:00,65.0,35.0,-100.00,North,0,8.0,14.0,33,0.00,,,0.00,260.000000,,2013-09-13 02:11:00,
2013-09-12 19:43:00,61.0,39.0,-100.00,North,1,8.0,11.0,44,0.00,,,0.00,32.000000,,2013-09-13 02:43:00,
2013-09-12 19:53:00,61.0,39.0,-100.00,North,1,8.0,11.0,44,0.00,,,0.00,32.000000,,2013-09-13 02:53:00,
2013-09-12 20:02:00,61.0,39.0,-100.00,North,1,8.0,11.0,44,0.00,,,0.00,32.000000,,2013-09-13 03:02:00,
2013-09-12 20:11:00,61.0,39.0,-100.00,North,1,8.0,11.0,44,0.00,,,0.00,32.000000,,2013-09-13 03:11:00,
2013-09-12 20:45:00,62.0,33.0,-100.00,North,1,7.0,11.0,34,0.00,,,0.00,3.000000,,2013-09-13 03:45:00,
2013-09-12 20:55:00,62.0,33.0,-100.00,North,1,7.0,11.0,34,0.00,,,0.00,3.000000,,2013-09-13 03:55:00,
2013-09-12 21:04:00,62.0,33.0,-100.00,North,1,7.0,11.0,34,0.00,,,0.00,3.000000,,2013-09-13 04:04:00,
2013-09-12 21:14:00,62.0,33.0,-100.00,North,1,7.0,11.0,34,0.00,,,0.00,3.000000,,2013-09-13 04:14:00,
2013-09-12 21:44:00,61.0,33.0,-100.00,North,1,6.0,11.0,35,0.00,,,0.00,3.000000,,2013-09-13 04:44:00,
2013-09-12 21:54:00,61.0,33.0,-100.00,North,1,6.0,11.0,35,0.00,,,0.00,3.000000,,2013-09-13 04:54:00,
2013-09-12 22:03:00,61.0,33.0,-100.00,North,1,6.0,11.0,35,0.00,,,0.00,3.000000,,2013-09-13 05:03:00,
2013-09-12 22:13:00,61.0,33.0,-100.00,North,1,6.0,11.0,35,0.00,,,0.00,3.000000,,2013-09-13 05:13:00,